createdAt,value
2018-05-24T00:00:01.897Z,5.13
2018-05-24T00:02:27.801Z,3.87
2018-05-24T00:04:53.977Z,4.60
2018-05-24T00:07:20.769Z,4.30
2018-05-24T00:09:46.783Z,4.50
2018-05-24T00:12:12.874Z,4.10
2018-05-24T00:14:39.731Z,4.40
2018-05-24T00:17:05.913Z,4.53
2018-05-24T00:19:31.883Z,5.40
2018-05-24T00:21:57.991Z,4.97
2018-05-24T00:24:24.750Z,5.83
2018-05-24T00:26:50.934Z,4.90
2018-05-24T00:29:16.880Z,5.30
2018-05-24T00:31:43.571Z,5.57
2018-05-24T00:34:09.777Z,5.70
2018-05-24T00:36:35.858Z,5.30
2018-05-24T00:39:01.756Z,5.37
2018-05-24T00:41:27.700Z,4.60
2018-05-24T00:43:53.616Z,4.80
2018-05-24T00:46:26.540Z,5.10
2018-05-24T00:48:52.455Z,6.00
2018-05-24T00:51:18.480Z,5.67
2018-05-24T00:53:44.377Z,5.00
2018-05-24T00:56:11.047Z,5.37
2018-05-24T00:58:37.034Z,5.30
2018-05-24T01:01:03.679Z,5.10
2018-05-24T01:03:30.327Z,5.80
2018-05-24T01:05:56.253Z,6.13
2018-05-24T01:08:22.217Z,5.13
2018-05-24T01:10:48.121Z,5.33
2018-05-24T01:13:14.057Z,5.33
2018-05-24T01:15:40.466Z,4.90
2018-05-24T01:18:07.057Z,4.63
2018-05-24T01:20:33.036Z,5.13
2018-05-24T01:22:58.957Z,4.90
2018-05-24T01:25:24.851Z,5.30
2018-05-24T01:27:50.774Z,5.00
2018-05-24T01:30:16.689Z,4.80
2018-05-24T01:32:42.589Z,5.40
2018-05-24T01:35:09.250Z,4.40
2018-05-24T01:37:47.622Z,5.00
2018-05-24T01:40:13.543Z,4.67
2018-05-24T01:42:39.461Z,4.93
2018-05-24T01:45:06.183Z,4.90
2018-05-24T01:47:32.115Z,4.60
2018-05-24T01:49:58.012Z,4.57
2018-05-24T01:52:24.640Z,5.13
2018-05-24T01:54:50.558Z,4.90
2018-05-24T01:57:16.462Z,5.20
2018-05-24T01:59:43.111Z,5.23
2018-05-24T02:02:09.107Z,4.60
2018-05-24T02:04:35.785Z,5.03
2018-05-24T02:07:01.696Z,4.97
2018-05-24T02:09:27.608Z,5.43
2018-05-24T02:11:53.513Z,4.53
2018-05-24T02:14:20.148Z,5.50
2018-05-24T02:16:46.800Z,4.73
2018-05-24T02:19:12.756Z,5.00
2018-05-24T02:21:38.646Z,4.63
2018-05-24T02:24:04.574Z,5.17
2018-05-24T02:26:30.473Z,5.07
2018-05-24T02:28:57.187Z,5.30
2018-05-24T02:31:23.053Z,4.80
2018-05-24T02:33:49.170Z,4.67
2018-05-24T02:36:15.102Z,5.00
2018-05-24T02:38:41.061Z,4.80
2018-05-24T02:41:06.949Z,5.13
2018-05-24T02:43:32.852Z,5.03
2018-05-24T02:45:59.514Z,5.13
2018-05-24T02:48:25.507Z,4.47
2018-05-24T02:50:51.355Z,5.30
2018-05-24T02:53:17.284Z,5.20
2018-05-24T02:55:43.180Z,5.60
2018-05-24T02:58:15.289Z,5.40
2018-05-24T03:00:41.481Z,5.20
2018-05-24T03:03:08.260Z,5.10
2018-05-24T03:05:34.220Z,4.90
2018-05-24T03:08:01.154Z,5.33
2018-05-24T03:10:27.049Z,5.30
2018-05-24T03:12:52.950Z,5.00
2018-05-24T03:15:18.883Z,4.83
2018-05-24T03:17:44.785Z,5.47
2018-05-24T03:20:10.685Z,4.77
2018-05-24T03:22:36.597Z,4.60
2018-05-24T03:25:03.239Z,4.97
2018-05-24T03:27:29.867Z,5.40
2018-05-24T03:29:56.537Z,4.30
2018-05-24T03:32:22.437Z,4.80
2018-05-24T03:34:48.340Z,5.17
2018-05-24T03:37:15.015Z,4.80
2018-05-24T03:39:40.907Z,4.73
2018-05-24T03:42:07.571Z,4.73
2018-05-24T03:44:33.486Z,5.20
2018-05-24T03:46:59.389Z,5.07
2018-05-24T03:49:26.071Z,4.87
2018-05-24T03:51:51.975Z,4.57
2018-05-24T03:54:17.897Z,5.40
2018-05-24T03:56:43.828Z,4.80
2018-05-24T04:02:34.409Z,4.80
2018-05-24T04:05:01.200Z,5.30
2018-05-24T04:07:27.141Z,4.50
2018-05-24T04:09:53.166Z,4.60
2018-05-24T04:12:19.115Z,5.00
2018-05-24T04:14:45.765Z,4.50
2018-05-24T04:17:11.695Z,5.30
2018-05-24T04:19:37.619Z,6.40
2018-05-24T04:22:03.514Z,4.60
2018-05-24T04:24:30.178Z,13.40
2018-05-24T04:26:56.115Z,4.73
2018-05-24T04:29:21.996Z,4.93
2018-05-24T04:31:48.784Z,4.83
2018-05-24T04:34:14.698Z,5.50
2018-05-24T04:36:40.597Z,5.70
2018-05-24T04:39:06.500Z,6.10
2018-05-24T04:41:33.159Z,5.30
2018-05-24T04:43:59.057Z,4.70
2018-05-24T04:46:25.689Z,4.60
2018-05-24T04:48:52.330Z,4.47
2018-05-24T04:51:18.971Z,5.00
2018-05-24T04:53:45.616Z,5.03
2018-05-24T04:56:12.297Z,4.97
2018-05-24T04:58:38.184Z,5.10
2018-05-24T05:01:04.084Z,4.83
2018-05-24T05:03:31.545Z,5.23
2018-05-24T05:05:58.198Z,5.23
2018-05-24T05:08:24.140Z,5.03
2018-05-24T05:10:50.059Z,4.90
2018-05-24T05:13:15.953Z,4.80
2018-05-24T05:15:41.857Z,4.70
2018-05-24T05:18:08.513Z,5.67
2018-05-24T05:20:35.147Z,5.30
2018-05-24T05:23:01.796Z,4.90
2018-05-24T05:25:27.713Z,5.93
2018-05-24T05:27:53.609Z,5.00
2018-05-24T05:30:19.808Z,5.13
2018-05-24T05:32:46.313Z,5.33
2018-05-24T05:35:12.260Z,5.60
2018-05-24T05:37:38.154Z,5.23
2018-05-24T05:40:04.084Z,5.53
2018-05-24T05:42:29.978Z,5.60
2018-05-24T05:44:55.908Z,5.23
2018-05-24T05:47:22.585Z,5.50
2018-05-24T05:49:48.508Z,5.70
2018-05-24T05:52:14.421Z,5.90
2018-05-24T05:54:40.346Z,5.30
2018-05-24T05:57:06.268Z,5.93
2018-05-24T05:59:32.176Z,5.80
2018-05-24T06:01:58.165Z,5.67
2018-05-24T06:04:24.014Z,6.07
2018-05-24T06:06:49.932Z,5.50
2018-05-24T06:09:15.924Z,6.20
2018-05-24T06:11:41.865Z,5.93
2018-05-24T06:14:07.784Z,5.73
2018-05-24T06:16:33.719Z,5.17
2018-05-24T06:18:59.646Z,6.60
2018-05-24T06:21:25.565Z,6.17
2018-05-24T06:23:51.519Z,5.50
2018-05-24T06:26:17.429Z,6.13
2018-05-24T06:28:43.345Z,5.50
2018-05-24T06:31:09.306Z,5.73
2018-05-24T06:33:35.935Z,5.53
2018-05-24T06:36:01.851Z,5.30
2018-05-24T06:38:28.536Z,6.10
2018-05-24T06:40:54.534Z,6.10
2018-05-24T06:43:21.189Z,5.40
2018-05-24T06:45:47.113Z,6.00
2018-05-24T06:48:13.033Z,5.93
2018-05-24T06:50:38.935Z,5.83
2018-05-24T06:53:04.885Z,6.33
2018-05-24T06:55:30.790Z,6.43
2018-05-24T06:57:56.680Z,6.13
2018-05-24T07:00:22.597Z,5.90
2018-05-24T07:02:48.501Z,5.10
2018-05-24T07:05:14.394Z,6.00
2018-05-24T07:07:40.299Z,5.90
2018-05-24T07:10:06.241Z,5.97
2018-05-24T07:12:32.151Z,5.97
2018-05-24T07:14:58.068Z,5.27
2018-05-24T07:17:23.947Z,5.57
2018-05-24T07:19:49.867Z,5.57
2018-05-24T07:22:16.554Z,5.27
2018-05-24T07:24:42.576Z,5.60
2018-05-24T07:27:08.392Z,4.87
2018-05-24T07:29:34.336Z,5.10
2018-05-24T07:32:00.237Z,5.33
2018-05-24T07:34:26.161Z,5.73
2018-05-24T07:36:52.109Z,5.00
2018-05-24T07:39:18.014Z,5.47
2018-05-24T07:41:43.929Z,5.47
2018-05-24T07:44:09.836Z,5.70
2018-05-24T07:46:35.746Z,6.03
2018-05-24T07:49:01.666Z,5.67
2018-05-24T07:51:27.597Z,6.37
2018-05-24T07:53:53.509Z,4.63
2018-05-24T07:56:19.414Z,5.60
2018-05-24T07:58:46.086Z,5.37
2018-05-24T08:01:11.991Z,5.27
2018-05-24T08:03:37.880Z,5.40
2018-05-24T08:06:03.792Z,5.40
2018-05-24T08:08:29.743Z,5.37
2018-05-24T08:10:55.661Z,5.50
2018-05-24T08:13:22.336Z,5.40
2018-05-24T08:15:48.273Z,4.80
2018-05-24T08:18:14.153Z,4.60
2018-05-24T08:20:40.070Z,5.07
2018-05-24T08:23:05.978Z,5.23
2018-05-24T08:25:32.624Z,5.20
2018-05-24T08:27:59.310Z,4.90
2018-05-24T08:30:25.212Z,4.90
2018-05-24T08:32:51.132Z,4.80
2018-05-24T08:35:17.052Z,4.97
2018-05-24T08:37:42.971Z,5.00
2018-05-24T08:40:08.884Z,5.10
2018-05-24T08:42:34.834Z,4.87
2018-05-24T08:45:00.775Z,5.40
2018-05-24T08:47:26.734Z,4.50
2018-05-24T08:49:52.813Z,4.13
2018-05-24T08:52:18.754Z,4.57
2018-05-24T08:54:44.662Z,4.47
2018-05-24T08:57:10.606Z,4.50
2018-05-24T08:59:37.252Z,7.73
2018-05-24T09:02:03.928Z,5.70
2018-05-24T09:04:29.877Z,4.80
2018-05-24T09:06:55.818Z,4.50
2018-05-24T09:09:21.770Z,4.60
2018-05-24T09:11:47.920Z,5.13
2018-05-24T09:14:13.856Z,4.47
2018-05-24T09:16:39.788Z,4.90
2018-05-24T09:19:05.753Z,4.90
2018-05-24T09:21:32.465Z,4.70
2018-05-24T09:23:58.415Z,4.63
2018-05-24T09:26:25.112Z,4.53
2018-05-24T09:28:51.088Z,4.10
2018-05-24T09:31:17.834Z,4.60
2018-05-24T09:33:43.790Z,4.10
2018-05-24T09:36:09.781Z,4.27
2018-05-24T09:38:35.656Z,3.93
2018-05-24T09:41:01.581Z,4.10
2018-05-24T09:43:27.542Z,4.17
2018-05-24T09:45:53.485Z,5.67
2018-05-24T09:48:19.486Z,4.67
2018-05-24T09:50:45.496Z,4.30
2018-05-24T09:53:11.403Z,4.00
2018-05-24T09:55:38.078Z,4.20
2018-05-24T09:58:04.026Z,4.43
2018-05-24T10:00:30.828Z,4.77
2018-05-24T10:02:56.830Z,3.80
2018-05-24T10:05:23.486Z,4.57
2018-05-24T10:07:49.387Z,4.50
2018-05-24T10:10:16.069Z,3.93
2018-05-24T10:12:42.026Z,3.97
2018-05-24T10:15:07.920Z,3.80
2018-05-24T10:17:33.855Z,4.37
2018-05-24T10:19:59.780Z,4.60
2018-05-24T10:22:25.698Z,4.20
2018-05-24T10:24:51.685Z,4.20
2018-05-24T10:27:17.601Z,4.30
2018-05-24T10:29:43.499Z,3.93
2018-05-24T10:32:10.169Z,4.30
2018-05-24T10:34:36.081Z,3.73
2018-05-24T10:37:01.981Z,4.60
2018-05-24T10:39:27.981Z,4.07
2018-05-24T10:41:53.833Z,4.17
2018-05-24T10:44:19.835Z,3.77
2018-05-24T10:46:45.752Z,3.83
2018-05-24T10:49:12.414Z,4.10
2018-05-24T10:51:39.089Z,4.00
2018-05-24T10:54:05.034Z,3.93
2018-05-24T10:56:30.932Z,3.60
2018-05-24T10:58:56.882Z,3.93
2018-05-24T11:01:22.849Z,4.40
2018-05-24T11:03:48.767Z,15.57
2018-05-24T11:06:14.672Z,4.73
2018-05-24T11:08:41.332Z,3.53
2018-05-24T11:11:08.002Z,3.40
2018-05-24T11:13:33.990Z,4.20
2018-05-24T11:15:59.935Z,4.10
2018-05-24T11:18:25.855Z,4.70
2018-05-24T11:20:52.381Z,3.77
2018-05-24T11:23:18.344Z,4.63
2018-05-24T11:25:44.266Z,4.27
2018-05-24T11:28:10.185Z,4.00
2018-05-24T11:30:36.115Z,3.63
2018-05-24T11:33:02.797Z,3.90
2018-05-24T11:35:28.735Z,3.77
2018-05-24T11:37:54.725Z,3.40
2018-05-24T11:40:20.657Z,3.63
2018-05-24T11:42:46.575Z,3.63
2018-05-24T11:45:12.475Z,3.47
2018-05-24T11:47:39.134Z,3.37
2018-05-24T11:50:05.226Z,3.10
2018-05-24T11:52:31.900Z,3.10
2018-05-24T11:54:57.846Z,3.00
2018-05-24T11:57:23.811Z,2.90
2018-05-24T11:59:50.470Z,3.27
2018-05-24T12:02:16.396Z,3.00
2018-05-24T12:04:42.345Z,2.53
2018-05-24T12:07:08.329Z,3.23
2018-05-24T12:09:34.183Z,2.97
2018-05-24T12:12:00.073Z,3.43
2018-05-24T12:14:26.056Z,3.20
2018-05-24T12:16:52.051Z,3.20
2018-05-24T12:19:17.960Z,7.63
2018-05-24T12:21:43.940Z,3.07
2018-05-24T12:24:10.597Z,3.47
2018-05-24T12:26:36.548Z,2.90
2018-05-24T12:29:02.523Z,3.10
2018-05-24T12:31:28.391Z,3.53
2018-05-24T12:33:54.281Z,2.60
2018-05-24T12:36:20.224Z,3.13
2018-05-24T12:38:46.143Z,2.63
2018-05-24T12:41:12.100Z,2.40
2018-05-24T12:43:38.006Z,2.37
2018-05-24T12:46:03.961Z,2.60
2018-05-24T12:48:31.665Z,3.13
2018-05-24T12:50:59.094Z,2.97
2018-05-24T12:53:25.756Z,3.63
2018-05-24T12:55:51.663Z,2.17
2018-05-24T12:58:17.667Z,2.77
2018-05-24T13:00:44.333Z,3.03
2018-05-24T13:03:10.249Z,2.10
2018-05-24T13:05:36.227Z,4.10
2018-05-24T13:08:02.136Z,2.53
2018-05-24T13:10:28.049Z,3.67
2018-05-24T13:12:53.978Z,2.53
2018-05-24T13:15:21.491Z,2.50
2018-05-24T13:17:47.399Z,2.73
2018-05-24T13:20:14.103Z,3.53
2018-05-24T13:22:40.045Z,2.80
2018-05-24T13:25:05.951Z,2.70
2018-05-24T13:27:31.903Z,2.90
2018-05-24T13:29:58.773Z,2.87
2018-05-24T13:32:24.688Z,4.43
2018-05-24T13:34:50.602Z,3.40
2018-05-24T13:37:16.571Z,3.10
2018-05-24T13:39:42.479Z,2.93
2018-05-24T13:42:08.425Z,2.80
2018-05-24T13:44:34.340Z,2.87
2018-05-24T13:47:00.247Z,3.20
2018-05-24T13:49:26.177Z,2.90
2018-05-24T13:51:52.090Z,2.80
2018-05-24T13:54:18.003Z,2.70
2018-05-24T13:56:43.919Z,3.13
2018-05-24T13:59:09.845Z,3.50
2018-05-24T14:01:35.841Z,3.10
2018-05-24T14:04:01.712Z,2.70
2018-05-24T14:06:27.629Z,2.80
2018-05-24T14:08:53.525Z,3.17
2018-05-24T14:11:19.442Z,3.20
2018-05-24T14:13:45.339Z,3.50
2018-05-24T14:16:11.241Z,3.27
2018-05-24T14:18:37.927Z,2.93
2018-05-24T14:21:03.855Z,3.60
2018-05-24T14:23:29.777Z,4.30
2018-05-24T14:25:55.722Z,4.97
2018-05-24T14:28:21.631Z,3.50
2018-05-24T14:30:47.568Z,2.97
2018-05-24T14:33:13.509Z,3.37
2018-05-24T14:35:40.217Z,3.00
2018-05-24T14:38:06.125Z,2.90
2018-05-24T14:40:32.047Z,3.30
2018-05-24T14:42:57.948Z,3.40
2018-05-24T14:45:23.856Z,3.90
2018-05-24T14:47:56.606Z,3.40
2018-05-24T14:50:23.254Z,4.27
2018-05-24T14:52:49.890Z,3.30
2018-05-24T14:55:16.565Z,3.30
2018-05-24T14:57:42.473Z,3.07
2018-05-24T15:00:08.385Z,2.80
2018-05-24T15:02:34.303Z,2.80
2018-05-24T15:05:00.215Z,2.70
2018-05-24T15:07:26.150Z,3.00
2018-05-24T15:09:52.064Z,4.10
2018-05-24T15:12:17.968Z,3.27
2018-05-24T15:14:44.635Z,3.40
2018-05-24T15:17:10.556Z,3.40
2018-05-24T15:19:36.717Z,3.50
2018-05-24T15:22:02.636Z,2.90
2018-05-24T15:24:28.555Z,3.13
2018-05-24T15:26:54.451Z,3.10
2018-05-24T15:29:20.366Z,3.37
2018-05-24T15:31:46.298Z,3.03
2018-05-24T15:34:12.203Z,3.40
2018-05-24T15:36:38.122Z,3.53
2018-05-24T15:39:04.024Z,2.53
2018-05-24T15:41:30.681Z,3.13
2018-05-24T15:43:56.580Z,3.20
2018-05-24T15:46:23.242Z,3.63
2018-05-24T15:48:49.212Z,3.40
2018-05-24T15:51:15.090Z,3.10
2018-05-24T15:53:41.001Z,2.70
2018-05-24T15:56:06.912Z,3.20
2018-05-24T15:58:32.806Z,2.80
2018-05-24T16:00:58.729Z,3.57
2018-05-24T16:03:25.437Z,3.40
2018-05-24T16:05:51.359Z,3.70
2018-05-24T16:08:17.255Z,3.37
2018-05-24T16:10:43.205Z,3.67
2018-05-24T16:13:09.102Z,3.27
2018-05-24T16:15:35.061Z,3.40
2018-05-24T16:18:01.002Z,3.90
2018-05-24T16:20:27.670Z,3.60
2018-05-24T16:22:53.650Z,3.03
2018-05-24T16:25:19.540Z,3.37
2018-05-24T16:27:45.496Z,3.47
2018-05-24T16:30:11.368Z,3.43
2018-05-24T16:32:37.252Z,3.37
2018-05-24T16:35:03.926Z,4.47
2018-05-24T16:37:29.844Z,3.30
2018-05-24T16:39:55.752Z,3.60
2018-05-24T16:42:22.052Z,3.80
2018-05-24T16:44:48.028Z,3.20
2018-05-24T16:47:13.967Z,3.10
2018-05-24T16:49:39.890Z,3.80
2018-05-24T16:52:05.811Z,3.30
2018-05-24T16:54:31.744Z,3.70
2018-05-24T16:56:57.648Z,4.30
2018-05-24T16:59:23.587Z,3.87
2018-05-24T17:01:49.535Z,4.57
2018-05-24T17:04:16.187Z,4.20
2018-05-24T17:06:42.163Z,4.00
2018-05-24T17:09:08.064Z,4.50
2018-05-24T17:11:34.057Z,4.10
2018-05-24T17:14:00.689Z,4.20
2018-05-24T17:16:26.652Z,3.73
2018-05-24T17:18:52.596Z,3.90
2018-05-24T17:21:18.482Z,4.50
2018-05-24T17:23:44.401Z,3.80
2018-05-24T17:26:10.345Z,4.27
2018-05-24T17:28:36.269Z,4.70
2018-05-24T17:31:02.194Z,4.70
2018-05-24T17:33:28.132Z,4.00
2018-05-24T17:35:54.840Z,3.97
2018-05-24T17:38:20.752Z,4.10
2018-05-24T17:40:46.645Z,4.10
2018-05-24T17:43:12.569Z,4.73
2018-05-24T17:45:38.475Z,4.37
2018-05-24T17:48:04.384Z,5.07
2018-05-24T17:50:31.026Z,4.20
2018-05-24T17:52:57.668Z,3.73
2018-05-24T17:55:23.603Z,4.03
2018-05-24T17:57:49.517Z,4.20
2018-05-24T18:00:15.459Z,4.50
2018-05-24T18:02:41.351Z,4.37
2018-05-24T18:05:07.286Z,4.33
2018-05-24T18:07:33.226Z,4.20
2018-05-24T18:09:59.137Z,4.90
2018-05-24T18:12:25.076Z,4.80
2018-05-24T18:14:51.747Z,5.00
2018-05-24T18:17:17.638Z,4.00
2018-05-24T18:19:43.556Z,3.90
2018-05-24T18:22:09.450Z,5.00
2018-05-24T18:24:35.379Z,4.40
2018-05-24T18:27:01.302Z,4.70
2018-05-24T18:29:27.214Z,4.47
2018-05-24T18:31:53.127Z,4.37
2018-05-24T18:34:19.073Z,5.00
2018-05-24T18:36:44.985Z,4.63
2018-05-24T18:39:10.893Z,4.63
2018-05-24T18:41:36.815Z,4.80
2018-05-24T18:44:02.721Z,5.37
2018-05-24T18:46:28.641Z,4.70
2018-05-24T18:48:54.564Z,5.63
2018-05-24T18:51:20.485Z,5.90
2018-05-24T18:53:47.128Z,5.50
2018-05-24T18:56:13.094Z,6.40
2018-05-24T18:58:38.950Z,5.23
2018-05-24T19:01:05.609Z,6.63
2018-05-24T19:03:31.835Z,5.30
2018-05-24T19:05:57.740Z,5.50
2018-05-24T19:08:24.440Z,5.97
2018-05-24T19:10:57.313Z,5.50
2018-05-24T19:13:23.268Z,5.27
2018-05-24T19:15:49.160Z,5.50
2018-05-24T19:18:15.079Z,5.47
2018-05-24T19:20:40.976Z,6.40
2018-05-24T19:23:06.883Z,6.10
2018-05-24T19:25:32.839Z,4.77
2018-05-24T19:27:58.791Z,5.67
2018-05-24T19:30:26.089Z,6.27
2018-05-24T19:32:52.019Z,5.53
2018-05-24T19:35:17.975Z,6.87
2018-05-24T19:37:43.872Z,4.97
2018-05-24T19:40:09.788Z,5.77
2018-05-24T19:42:35.713Z,5.40
2018-05-24T19:45:01.641Z,6.20
2018-05-24T19:47:27.559Z,6.63
2018-05-24T19:49:53.688Z,5.37
2018-05-24T19:52:20.488Z,5.70
2018-05-24T19:54:46.430Z,6.13
2018-05-24T19:57:12.362Z,5.63
2018-05-24T19:59:38.268Z,5.50
2018-05-24T20:02:04.938Z,6.50
2018-05-24T20:04:30.873Z,5.80
2018-05-24T20:06:56.869Z,4.70
2018-05-24T20:09:22.921Z,5.87
2018-05-24T20:11:48.851Z,5.10
2018-05-24T20:14:14.774Z,5.40
2018-05-24T20:16:40.724Z,6.20
2018-05-24T20:19:06.660Z,6.17
2018-05-24T20:21:32.609Z,5.47
2018-05-24T20:23:58.590Z,5.80
2018-05-24T20:26:24.557Z,6.47
2018-05-24T20:28:50.473Z,5.50
2018-05-24T20:31:16.430Z,5.80
2018-05-24T20:33:43.105Z,6.00
2018-05-24T20:36:09.036Z,5.50
2018-05-24T20:38:34.991Z,5.33
2018-05-24T20:41:00.970Z,6.00
2018-05-24T20:43:26.942Z,7.50
2018-05-24T20:45:52.900Z,6.33
2018-05-24T20:48:18.836Z,6.17
2018-05-24T20:50:44.755Z,5.67
2018-05-24T20:53:10.680Z,4.93
2018-05-24T20:55:36.630Z,5.67
2018-05-24T20:58:02.615Z,5.70
2018-05-24T21:00:28.581Z,6.70
2018-05-24T21:02:54.543Z,6.50
2018-05-24T21:05:21.269Z,6.47
2018-05-24T21:07:47.948Z,5.53
2018-05-24T21:10:13.946Z,6.00
2018-05-24T21:12:40.850Z,6.00
2018-05-24T21:15:06.849Z,6.17
2018-05-24T21:17:33.017Z,6.00
2018-05-24T21:19:58.958Z,6.40
2018-05-24T21:22:25.754Z,6.20
2018-05-24T21:24:51.708Z,6.60
2018-05-24T21:27:18.434Z,6.27
2018-05-24T21:29:44.389Z,6.17
2018-05-24T21:32:10.327Z,7.00
2018-05-24T21:34:36.243Z,6.70
2018-05-24T21:37:02.548Z,6.50
2018-05-24T21:39:29.262Z,7.00
2018-05-24T21:41:55.261Z,6.50
2018-05-24T21:44:21.214Z,5.17
2018-05-24T21:46:47.454Z,5.97
2018-05-24T21:49:14.129Z,5.97
2018-05-24T21:51:40.072Z,6.67
2018-05-24T21:54:06.034Z,6.40
2018-05-24T21:56:33.116Z,6.00
2018-05-24T21:58:59.114Z,5.70
2018-05-24T22:01:25.855Z,6.23
2018-05-24T22:03:52.552Z,5.73
2018-05-24T22:06:18.513Z,5.27
2018-05-24T22:08:45.183Z,5.30
2018-05-24T22:11:11.177Z,6.30
2018-05-24T22:13:37.860Z,5.50
2018-05-24T22:16:03.821Z,7.10
2018-05-24T22:18:29.780Z,5.97
2018-05-24T22:20:55.720Z,6.03
2018-05-24T22:23:21.661Z,6.17
2018-05-24T22:25:47.587Z,5.80
2018-05-24T22:28:13.531Z,6.20
2018-05-24T22:30:40.205Z,6.30
2018-05-24T22:33:06.135Z,6.20
2018-05-24T22:35:32.080Z,5.00
2018-05-24T22:37:57.990Z,6.60
2018-05-24T22:40:23.903Z,5.87
2018-05-24T22:42:50.442Z,5.80
2018-05-24T22:45:16.938Z,7.57
2018-05-24T22:47:42.921Z,6.40
2018-05-24T22:50:08.908Z,6.10
2018-05-24T22:52:34.849Z,6.50
2018-05-24T22:55:00.849Z,5.60
2018-05-24T22:57:26.858Z,7.07
2018-05-24T22:59:52.847Z,6.50
2018-05-24T23:02:18.810Z,7.13
2018-05-24T23:04:44.746Z,7.10
2018-05-24T23:07:10.663Z,7.07
2018-05-24T23:09:36.740Z,6.73
2018-05-24T23:12:02.694Z,7.60
2018-05-24T23:14:28.613Z,7.47
2018-05-24T23:16:55.462Z,6.30
2018-05-24T23:19:21.404Z,6.53
2018-05-24T23:21:47.407Z,6.53
2018-05-24T23:24:13.442Z,6.57
2018-05-24T23:26:39.654Z,6.50
2018-05-24T23:29:05.603Z,7.13
2018-05-24T23:31:31.949Z,6.87
2018-05-24T23:33:57.876Z,6.07
2018-05-24T23:36:24.109Z,6.37
2018-05-24T23:38:50.817Z,6.57
2018-05-24T23:41:16.766Z,6.80
2018-05-24T23:43:42.698Z,6.50
2018-05-24T23:46:08.639Z,7.20
2018-05-24T23:48:35.824Z,7.10
2018-05-24T23:51:01.787Z,6.97
2018-05-24T23:53:27.975Z,7.13
2018-05-24T23:55:53.940Z,7.80
2018-05-24T23:58:20.283Z,7.40
